createdAt,value
2022-09-18T00:01:19.843Z,8.31
2022-09-18T00:03:46.907Z,8.29
2022-09-18T00:06:15.969Z,8.30
2022-09-18T00:08:42.666Z,8.29
2022-09-18T00:11:11.513Z,8.30
2022-09-18T00:13:39.557Z,8.28
2022-09-18T00:16:08.229Z,8.21
2022-09-18T00:18:34.811Z,8.19
2022-09-18T00:21:14.789Z,8.19
2022-09-18T00:23:42.226Z,8.19
2022-09-18T00:26:10.940Z,8.22
2022-09-18T00:28:37.495Z,8.09
2022-09-18T00:31:13.030Z,8.10
2022-09-18T00:33:40.342Z,8.12
2022-09-18T00:36:09.901Z,8.09
2022-09-18T00:38:36.771Z,8.12
2022-09-18T00:41:06.787Z,8.19
2022-09-18T00:43:35.699Z,8.15
2022-09-18T00:46:15.576Z,8.22
2022-09-18T00:49:05.325Z,8.18
2022-09-18T00:51:34.522Z,8.11
2022-09-18T00:54:19.469Z,8.18
2022-09-18T00:56:48.546Z,8.15
2022-09-18T00:59:22.161Z,8.20
2022-09-18T01:01:48.848Z,8.24
2022-09-18T01:04:15.482Z,8.22
2022-09-18T01:06:53.919Z,8.22
2022-09-18T01:10:06.508Z,8.23
2022-09-18T01:12:51.510Z,8.24
2022-09-18T01:15:33.421Z,8.24
2022-09-18T01:18:11.622Z,8.26
2022-09-18T01:20:50.653Z,8.32
2022-09-18T01:24:00.400Z,8.36
2022-09-18T01:26:45.605Z,8.42
2022-09-18T01:29:20.944Z,8.43
2022-09-18T01:31:54.576Z,8.45
2022-09-18T01:34:40.619Z,8.46
2022-09-18T01:37:30.820Z,8.39
2022-09-18T01:40:31.089Z,8.38
2022-09-18T01:43:02.673Z,8.37
2022-09-18T01:45:33.795Z,8.33
2022-09-18T01:48:05.692Z,8.37
2022-09-18T01:50:36.042Z,8.32
2022-09-18T01:53:11.943Z,8.30
2022-09-18T01:55:41.214Z,8.36
2022-09-18T01:58:12.224Z,8.31
2022-09-18T02:00:43.242Z,8.37
2022-09-18T02:03:33.739Z,8.39
2022-09-18T02:06:08.880Z,8.37
2022-09-18T02:08:43.772Z,8.38
2022-09-18T02:11:15.075Z,8.36
2022-09-18T02:13:46.518Z,8.38
2022-09-18T02:16:44.427Z,8.28
2022-09-18T02:19:26.431Z,8.28
2022-09-18T02:21:56.123Z,8.28
2022-09-18T02:24:28.021Z,8.29
2022-09-18T02:26:56.558Z,8.19
2022-09-18T02:29:25.267Z,8.19
2022-09-18T02:31:52.311Z,8.25
2022-09-18T02:34:20.080Z,8.28
2022-09-18T02:36:55.595Z,8.29
2022-09-18T02:39:33.996Z,8.26
2022-09-18T02:42:26.143Z,8.33
2022-09-18T02:45:08.332Z,8.42
2022-09-18T02:47:56.611Z,8.33
2022-09-18T02:50:31.446Z,8.44
2022-09-18T02:53:23.561Z,8.40
2022-09-18T02:56:16.598Z,8.45
2022-09-18T02:58:51.886Z,8.36
2022-09-18T03:01:21.714Z,8.40
2022-09-18T03:03:48.307Z,8.40
2022-09-18T03:06:14.816Z,8.42
2022-09-18T03:08:41.343Z,8.42
2022-09-18T03:11:07.730Z,8.43
2022-09-18T03:13:34.117Z,8.43
2022-09-18T03:16:00.652Z,8.41
2022-09-18T03:18:27.548Z,8.32
2022-09-18T03:20:54.163Z,8.32
2022-09-18T03:23:20.587Z,8.29
2022-09-18T03:25:50.087Z,8.37
2022-09-18T03:28:17.289Z,8.37
2022-09-18T03:30:45.227Z,8.36
2022-09-18T03:33:11.828Z,8.35
2022-09-18T03:35:38.541Z,8.35
2022-09-18T03:38:05.055Z,8.34
2022-09-18T03:40:31.632Z,8.40
2022-09-18T03:42:58.499Z,8.42
2022-09-18T03:45:24.997Z,8.42
2022-09-18T03:47:51.479Z,8.42
2022-09-18T03:50:17.964Z,8.42
2022-09-18T03:52:49.034Z,8.46
2022-09-18T03:55:17.651Z,8.44
2022-09-18T03:57:45.945Z,8.46
2022-09-18T04:00:13.198Z,8.46
2022-09-18T04:02:39.675Z,8.49
2022-09-18T04:05:06.880Z,8.47
2022-09-18T04:07:33.372Z,8.54
2022-09-18T04:10:00.087Z,8.55
2022-09-18T04:12:26.603Z,8.52
2022-09-18T04:14:53.294Z,8.54
2022-09-18T04:17:19.896Z,8.53
2022-09-18T04:19:51.363Z,8.61
2022-09-18T04:22:20.027Z,8.59
2022-09-18T04:24:46.588Z,8.61
2022-09-18T04:27:13.165Z,8.53
2022-09-18T04:29:39.767Z,8.53
2022-09-18T04:32:06.264Z,8.53
2022-09-18T04:34:32.974Z,8.51
2022-09-18T04:36:59.603Z,8.51
2022-09-18T04:39:25.970Z,8.55
2022-09-18T04:41:52.417Z,8.57
2022-09-18T04:44:18.834Z,8.55
2022-09-18T04:46:45.410Z,8.55
2022-09-18T04:49:11.866Z,8.55
2022-09-18T04:51:38.477Z,8.48
2022-09-18T04:54:05.175Z,8.52
2022-09-18T04:56:31.579Z,8.49
2022-09-18T04:58:58.175Z,8.48
2022-09-18T05:01:24.804Z,8.56
2022-09-18T05:03:51.437Z,8.51
2022-09-18T05:06:18.015Z,8.54
2022-09-18T05:08:44.467Z,8.60
2022-09-18T05:11:10.845Z,8.55
2022-09-18T05:13:37.444Z,8.52
2022-09-18T05:16:04.106Z,8.55
2022-09-18T05:18:30.964Z,8.56
2022-09-18T05:21:04.673Z,8.55
2022-09-18T05:23:31.295Z,8.56
2022-09-18T05:25:57.824Z,8.56
2022-09-18T05:28:24.513Z,8.58
2022-09-18T05:30:50.939Z,8.56
2022-09-18T05:33:17.629Z,8.54
2022-09-18T05:35:44.054Z,8.59
2022-09-18T05:38:11.472Z,8.66
2022-09-18T05:40:38.385Z,8.64
2022-09-18T05:43:05.791Z,8.60
2022-09-18T05:45:32.409Z,8.58
2022-09-18T05:48:01.287Z,8.50
2022-09-18T05:50:28.815Z,8.48
2022-09-18T05:53:16.617Z,8.48
2022-09-18T05:55:43.554Z,8.53
2022-09-18T05:58:15.347Z,8.44
2022-09-18T06:00:42.117Z,8.49
2022-09-18T06:03:14.005Z,8.53
2022-09-18T06:05:41.675Z,8.63
2022-09-18T06:08:11.105Z,8.63
2022-09-18T06:10:40.200Z,8.64
2022-09-18T06:13:09.035Z,8.66
2022-09-18T06:15:36.280Z,8.64
2022-09-18T06:18:03.925Z,8.71
2022-09-18T06:20:30.348Z,8.63
2022-09-18T06:23:00.855Z,8.67
2022-09-18T06:25:28.554Z,8.70
2022-09-18T06:27:59.268Z,8.69
2022-09-18T06:30:31.102Z,8.69
2022-09-18T06:33:02.508Z,8.72
2022-09-18T06:35:30.197Z,8.75
2022-09-18T06:38:00.639Z,8.74
2022-09-18T06:40:27.203Z,8.72
2022-09-18T06:42:58.018Z,8.71
2022-09-18T06:45:25.340Z,8.79
2022-09-18T06:47:52.345Z,8.83
2022-09-18T06:50:18.761Z,8.81
2022-09-18T06:52:45.198Z,8.81
2022-09-18T06:55:11.980Z,8.75
2022-09-18T06:57:38.481Z,8.81
2022-09-18T07:00:05.629Z,8.88
2022-09-18T07:02:32.150Z,8.82
2022-09-18T07:04:58.682Z,8.90
2022-09-18T07:07:25.338Z,8.91
2022-09-18T07:09:51.847Z,8.89
2022-09-18T07:12:18.511Z,8.93
2022-09-18T07:14:45.272Z,8.96
2022-09-18T07:17:17.687Z,9.01
2022-09-18T07:19:44.677Z,9.10
2022-09-18T07:22:11.409Z,9.04
2022-09-18T07:24:38.028Z,9.10
2022-09-18T07:27:04.681Z,9.10
2022-09-18T07:29:31.122Z,9.21
2022-09-18T07:31:59.239Z,9.24
2022-09-18T07:34:25.818Z,9.24
2022-09-18T07:36:52.255Z,9.28
2022-09-18T07:39:18.660Z,9.39
2022-09-18T07:41:45.210Z,9.45
2022-09-18T07:44:11.989Z,9.37
2022-09-18T07:46:38.535Z,9.46
2022-09-18T07:49:05.109Z,9.45
2022-09-18T07:51:31.642Z,9.38
2022-09-18T07:53:58.189Z,9.38
2022-09-18T07:56:24.646Z,9.47
2022-09-18T07:58:51.061Z,9.43
2022-09-18T08:01:17.797Z,9.44
2022-09-18T08:03:44.181Z,9.44
2022-09-18T08:06:10.642Z,9.50
2022-09-18T08:08:37.143Z,9.58
2022-09-18T08:11:03.821Z,9.55
2022-09-18T08:13:30.534Z,9.61
2022-09-18T08:15:57.045Z,9.69
2022-09-18T08:18:23.567Z,9.69
2022-09-18T08:20:50.362Z,9.76
2022-09-18T08:23:16.897Z,9.95
2022-09-18T08:25:43.370Z,9.94
2022-09-18T08:28:10.877Z,10.00
2022-09-18T08:30:37.727Z,10.01
2022-09-18T08:33:06.988Z,10.05
2022-09-18T08:35:34.002Z,9.99
2022-09-18T08:38:01.015Z,10.09
2022-09-18T08:40:42.650Z,10.10
2022-09-18T08:43:25.410Z,10.16
2022-09-18T08:46:07.627Z,10.17
2022-09-18T08:48:42.572Z,10.35
2022-09-18T08:51:23.465Z,10.35
2022-09-18T08:53:52.196Z,10.22
2022-09-18T08:56:23.692Z,10.33
2022-09-18T08:58:55.910Z,10.40
2022-09-18T09:01:40.586Z,10.45
2022-09-18T09:04:20.160Z,10.39
2022-09-18T09:07:05.081Z,10.42
2022-09-18T09:09:45.784Z,10.59
2022-09-18T09:12:42.756Z,10.88
2022-09-18T09:15:32.101Z,10.92
2022-09-18T09:18:18.286Z,10.82
2022-09-18T09:20:51.244Z,10.83
2022-09-18T09:23:32.923Z,10.75
2022-09-18T09:26:07.141Z,10.59
2022-09-18T09:28:55.428Z,10.57
2022-09-18T09:31:29.614Z,10.53
2022-09-18T09:34:01.497Z,10.58
2022-09-18T09:36:30.225Z,10.54
2022-09-18T09:39:11.319Z,10.57
2022-09-18T09:41:43.703Z,10.59
2022-09-18T09:44:10.140Z,10.68
2022-09-18T09:46:51.142Z,10.75
2022-09-18T09:49:27.417Z,10.75
2022-09-18T09:52:09.354Z,10.87
2022-09-18T09:54:36.173Z,10.85
2022-09-18T09:57:24.396Z,10.88
2022-09-18T10:00:14.547Z,10.98
2022-09-18T10:02:58.564Z,11.03
2022-09-18T10:05:31.271Z,11.10
2022-09-18T10:08:12.728Z,11.08
2022-09-18T10:10:51.208Z,11.33
2022-09-18T10:13:47.080Z,11.51
2022-09-18T10:16:22.487Z,11.40
2022-09-18T10:18:50.140Z,11.63
2022-09-18T10:21:22.552Z,11.69
2022-09-18T10:23:54.868Z,11.90
2022-09-18T10:26:31.004Z,12.06
2022-09-18T10:28:57.498Z,12.29
2022-09-18T10:31:43.941Z,12.52
2022-09-18T10:34:49.065Z,12.40
2022-09-18T10:37:15.552Z,12.61
2022-09-18T10:39:50.972Z,12.50
2022-09-18T10:42:21.776Z,12.75
2022-09-18T10:44:57.871Z,12.34
2022-09-18T10:47:29.739Z,12.43
2022-09-18T10:50:00.717Z,12.64
2022-09-18T10:52:36.228Z,12.74
2022-09-18T10:55:05.523Z,13.01
2022-09-18T10:57:32.014Z,13.15
2022-09-18T10:59:58.716Z,13.05
2022-09-18T11:02:35.178Z,13.24
2022-09-18T11:05:02.740Z,13.30
2022-09-18T11:07:29.388Z,13.13
2022-09-18T11:09:56.073Z,12.91
2022-09-18T11:12:25.391Z,13.25
2022-09-18T11:15:19.231Z,13.75
2022-09-18T11:17:50.895Z,13.83
2022-09-18T11:20:27.422Z,14.03
2022-09-18T11:22:54.455Z,13.90
2022-09-18T11:25:28.942Z,13.77
2022-09-18T11:27:57.878Z,13.85
2022-09-18T11:30:27.950Z,13.64
2022-09-18T11:33:29.594Z,13.63
2022-09-18T11:36:00.592Z,13.69
2022-09-18T11:38:27.691Z,13.26
2022-09-18T11:40:56.732Z,13.42
2022-09-18T11:43:33.508Z,13.52
2022-09-18T11:46:50.859Z,13.35
2022-09-18T11:49:43.732Z,13.52
2022-09-18T11:52:28.970Z,13.52
2022-09-18T11:55:02.647Z,13.67
2022-09-18T11:57:38.491Z,13.89
2022-09-18T12:00:18.815Z,14.39
2022-09-18T12:03:23.104Z,14.39
2022-09-18T12:06:06.613Z,14.57
2022-09-18T12:08:54.818Z,14.13
2022-09-18T12:11:33.067Z,14.13
2022-09-18T12:14:27.278Z,14.21
2022-09-18T12:16:59.114Z,14.11
2022-09-18T12:19:41.280Z,14.03
2022-09-18T12:22:32.954Z,13.94
2022-09-18T12:24:59.611Z,13.83
2022-09-18T12:27:38.244Z,14.09
2022-09-18T12:30:16.425Z,14.40
2022-09-18T12:33:07.642Z,14.46
2022-09-18T12:35:57.147Z,14.61
2022-09-18T12:38:53.267Z,14.62
2022-09-18T12:41:35.075Z,14.57
2022-09-18T12:44:28.456Z,14.83
2022-09-18T12:47:22.165Z,14.74
2022-09-18T12:50:26.959Z,14.95
2022-09-18T12:53:16.897Z,14.97
2022-09-18T12:55:56.013Z,14.88
2022-09-18T12:58:40.604Z,14.51
2022-09-18T13:01:36.016Z,14.32
2022-09-18T13:04:16.621Z,13.99
2022-09-18T13:06:49.944Z,14.18
2022-09-18T13:09:25.806Z,14.40
2022-09-18T13:11:59.150Z,14.60
2022-09-18T13:14:35.633Z,14.61
2022-09-18T13:17:15.810Z,14.81
2022-09-18T13:19:55.408Z,14.92
2022-09-18T13:22:25.526Z,14.75
2022-09-18T13:24:54.143Z,14.60
2022-09-18T13:27:24.540Z,14.53
2022-09-18T13:29:55.193Z,14.54
2022-09-18T13:32:22.676Z,14.45
2022-09-18T13:34:56.497Z,14.22
2022-09-18T13:37:28.919Z,14.16
2022-09-18T13:40:10.581Z,14.21
2022-09-18T13:42:42.489Z,14.22
2022-09-18T13:45:25.104Z,14.43
2022-09-18T13:48:07.046Z,14.38
2022-09-18T13:50:36.547Z,14.53
2022-09-18T13:53:04.587Z,14.38
2022-09-18T13:55:36.437Z,14.28
2022-09-18T13:58:30.741Z,14.20
2022-09-18T14:00:58.792Z,14.20
2022-09-18T14:03:27.914Z,14.35
2022-09-18T14:05:55.078Z,14.30
2022-09-18T14:08:21.394Z,14.51
2022-09-18T14:10:59.856Z,14.41
2022-09-18T14:13:43.497Z,14.46
2022-09-18T14:16:22.418Z,14.28
2022-09-18T14:18:48.860Z,14.29
2022-09-18T14:21:20.952Z,14.11
2022-09-18T14:23:47.367Z,14.05
2022-09-18T14:26:28.745Z,14.09
2022-09-18T14:29:00.512Z,14.13
2022-09-18T14:31:30.066Z,14.13
2022-09-18T14:34:21.443Z,14.23
2022-09-18T14:36:59.014Z,14.20
2022-09-18T14:39:35.162Z,14.09
2022-09-18T14:42:05.729Z,14.13
2022-09-18T14:44:34.092Z,14.15
2022-09-18T14:47:02.886Z,14.01
2022-09-18T14:49:37.047Z,14.01
2022-09-18T14:52:19.122Z,13.99
2022-09-18T14:54:47.481Z,14.00
2022-09-18T14:57:16.591Z,13.94
2022-09-18T14:59:43.326Z,13.94
2022-09-18T15:02:18.630Z,13.84
2022-09-18T15:04:45.597Z,13.77
2022-09-18T15:07:18.673Z,13.79
2022-09-18T15:09:48.505Z,13.67
2022-09-18T15:12:21.069Z,13.59
2022-09-18T15:14:47.906Z,13.56
2022-09-18T15:17:22.989Z,13.56
2022-09-18T15:19:56.308Z,13.49
2022-09-18T15:22:23.713Z,13.39
2022-09-18T15:24:51.734Z,13.44
2022-09-18T15:27:19.897Z,13.43
2022-09-18T15:29:59.364Z,13.36
2022-09-18T15:32:30.729Z,13.26
2022-09-18T15:34:58.840Z,13.22
2022-09-18T15:37:27.001Z,13.22
2022-09-18T15:40:06.831Z,13.19
2022-09-18T15:42:37.330Z,13.13
2022-09-18T15:45:16.053Z,13.07
2022-09-18T15:47:42.410Z,13.02
2022-09-18T15:50:34.660Z,13.06
2022-09-18T15:53:09.415Z,13.03
2022-09-18T15:55:53.869Z,13.00
2022-09-18T15:58:43.265Z,13.00
2022-09-18T16:01:19.504Z,12.98
2022-09-18T16:03:46.859Z,12.97
2022-09-18T16:06:27.597Z,12.95
2022-09-18T16:08:55.164Z,12.91
2022-09-18T16:11:45.614Z,12.85
2022-09-18T16:14:41.611Z,12.85
2022-09-18T16:17:30.638Z,12.81
2022-09-18T16:20:01.495Z,12.81
2022-09-18T16:22:30.488Z,12.77
2022-09-18T16:24:58.198Z,12.74
2022-09-18T16:27:26.123Z,12.69
2022-09-18T16:29:52.774Z,12.68
2022-09-18T16:32:19.207Z,12.62
2022-09-18T16:34:45.568Z,12.59
2022-09-18T16:37:13.153Z,12.55
2022-09-18T16:39:39.968Z,12.52
2022-09-18T16:42:18.881Z,12.48
2022-09-18T16:44:46.183Z,12.44
2022-09-18T16:47:14.705Z,12.43
2022-09-18T16:49:45.736Z,12.38
2022-09-18T16:52:13.103Z,12.33
2022-09-18T16:54:40.335Z,12.29
2022-09-18T16:57:13.753Z,12.27
2022-09-18T16:59:42.653Z,12.20
2022-09-18T17:02:11.371Z,12.18
2022-09-18T17:04:37.848Z,12.13
2022-09-18T17:07:04.310Z,12.13
2022-09-18T17:09:30.988Z,12.07
2022-09-18T17:11:58.901Z,12.05
2022-09-18T17:14:26.137Z,12.00
2022-09-18T17:16:52.821Z,11.98
2022-09-18T17:19:20.051Z,11.98
2022-09-18T17:21:46.452Z,12.00
2022-09-18T17:24:13.348Z,11.97
2022-09-18T17:26:41.143Z,11.93
2022-09-18T17:29:09.865Z,11.89
2022-09-18T17:31:36.519Z,11.87
2022-09-18T17:34:03.075Z,11.87
2022-09-18T17:36:29.929Z,11.85
2022-09-18T17:39:00.565Z,11.81
2022-09-18T17:41:28.671Z,11.80
2022-09-18T17:43:55.356Z,11.77
2022-09-18T17:46:21.911Z,11.77
2022-09-18T17:48:49.069Z,11.76
2022-09-18T17:51:17.074Z,11.75
2022-09-18T17:53:44.983Z,11.73
2022-09-18T17:56:13.619Z,11.72
2022-09-18T17:58:40.162Z,11.71
2022-09-18T18:01:18.923Z,11.71
2022-09-18T18:03:46.472Z,11.71
2022-09-18T18:06:13.039Z,11.74
2022-09-18T18:08:39.951Z,11.72
2022-09-18T18:11:09.177Z,11.71
2022-09-18T18:13:37.297Z,11.73
2022-09-18T18:16:08.763Z,11.73
2022-09-18T18:18:36.463Z,11.73
2022-09-18T18:21:03.828Z,11.76
2022-09-18T18:23:30.520Z,11.75
2022-09-18T18:26:00.449Z,11.74
2022-09-18T18:28:29.696Z,11.75
2022-09-18T18:31:00.780Z,11.76
2022-09-18T18:33:28.052Z,11.77
2022-09-18T18:35:54.511Z,11.76
2022-09-18T18:38:21.090Z,11.74
2022-09-18T18:40:47.536Z,11.79
2022-09-18T18:43:13.896Z,11.79
2022-09-18T18:45:49.944Z,11.77
2022-09-18T18:48:16.541Z,11.79
2022-09-18T18:50:43.129Z,11.74
2022-09-18T18:53:09.648Z,11.76
2022-09-18T18:55:37.365Z,11.75
2022-09-18T18:58:04.071Z,11.76
2022-09-18T19:00:32.352Z,11.80
2022-09-18T19:02:58.981Z,11.78
2022-09-18T19:05:25.480Z,11.74
2022-09-18T19:07:51.981Z,11.71
2022-09-18T19:10:18.631Z,11.74
2022-09-18T19:12:45.794Z,11.70
2022-09-18T19:15:12.521Z,11.65
2022-09-18T19:17:38.957Z,11.66
2022-09-18T19:20:05.947Z,11.70
2022-09-18T19:22:32.462Z,11.67
2022-09-18T19:24:59.278Z,11.65
2022-09-18T19:27:25.741Z,11.63
2022-09-18T19:29:52.196Z,11.78
2022-09-18T19:32:18.796Z,11.71
2022-09-18T19:34:45.584Z,11.69
2022-09-18T19:37:14.142Z,11.67
2022-09-18T19:39:42.440Z,11.66
2022-09-18T19:42:13.902Z,11.63
2022-09-18T19:44:49.081Z,11.67
2022-09-18T19:47:26.305Z,11.64
2022-09-18T19:49:53.736Z,11.67
2022-09-18T19:52:22.894Z,11.66
2022-09-18T19:54:51.319Z,11.67
2022-09-18T19:57:19.318Z,11.66
2022-09-18T19:59:46.212Z,11.66
2022-09-18T20:02:14.922Z,11.66
2022-09-18T20:04:41.545Z,11.63
2022-09-18T20:07:08.244Z,11.64
2022-09-18T20:09:34.800Z,11.64
2022-09-18T20:12:01.538Z,11.64
2022-09-18T20:14:30.291Z,11.67
2022-09-18T20:16:56.716Z,11.63
2022-09-18T20:19:23.916Z,11.61
2022-09-18T20:21:50.924Z,11.55
2022-09-18T20:24:17.631Z,11.47
2022-09-18T20:26:44.026Z,11.47
2022-09-18T20:29:15.286Z,11.55
2022-09-18T20:31:43.384Z,11.52
2022-09-18T20:34:10.566Z,11.46
2022-09-18T20:36:37.005Z,11.45
2022-09-18T20:39:04.329Z,11.40
2022-09-18T20:41:31.004Z,11.37
2022-09-18T20:43:58.900Z,11.37
2022-09-18T20:46:25.388Z,11.31
2022-09-18T20:48:52.110Z,11.27
2022-09-18T20:51:18.839Z,11.16
2022-09-18T20:53:46.695Z,11.07
2022-09-18T20:56:15.373Z,11.00
2022-09-18T20:58:42.278Z,11.03
2022-09-18T21:01:14.285Z,10.92
2022-09-18T21:03:43.057Z,10.82
2022-09-18T21:06:21.863Z,10.80
2022-09-18T21:08:51.290Z,10.76
2022-09-18T21:11:24.286Z,10.69
2022-09-18T21:13:56.299Z,10.64
2022-09-18T21:16:24.682Z,10.60
2022-09-18T21:18:52.714Z,10.57
2022-09-18T21:21:19.923Z,10.48
2022-09-18T21:23:46.731Z,10.48
2022-09-18T21:26:16.923Z,10.46
2022-09-18T21:28:44.031Z,10.44
2022-09-18T21:31:11.216Z,10.43
2022-09-18T21:33:38.875Z,10.37
2022-09-18T21:36:05.474Z,10.41
2022-09-18T21:38:31.913Z,10.36
2022-09-18T21:41:06.871Z,10.39
2022-09-18T21:43:35.630Z,10.30
2022-09-18T21:46:03.637Z,10.27
2022-09-18T21:48:31.966Z,10.22
2022-09-18T21:51:07.317Z,10.16
2022-09-18T21:53:35.695Z,10.11
2022-09-18T21:56:08.267Z,10.07
2022-09-18T21:58:37.743Z,10.08
2022-09-18T22:01:21.289Z,10.15
2022-09-18T22:03:49.914Z,10.20
2022-09-18T22:06:21.230Z,10.33
2022-09-18T22:08:49.003Z,10.29
2022-09-18T22:11:16.671Z,10.27
2022-09-18T22:13:43.180Z,10.29
2022-09-18T22:16:09.627Z,10.26
2022-09-18T22:18:37.468Z,10.28
2022-09-18T22:21:04.311Z,10.30
2022-09-18T22:23:37.431Z,10.32
2022-09-18T22:26:04.297Z,10.33
2022-09-18T22:28:30.796Z,10.29
2022-09-18T22:30:57.294Z,10.29
2022-09-18T22:33:23.713Z,10.28
2022-09-18T22:35:50.173Z,10.30
2022-09-18T22:38:16.503Z,10.33
2022-09-18T22:40:42.860Z,10.29
2022-09-18T22:43:09.224Z,10.28
2022-09-18T22:45:35.628Z,10.27
2022-09-18T22:48:02.111Z,10.30
2022-09-18T22:50:28.459Z,10.29
2022-09-18T22:52:55.075Z,10.28
2022-09-18T22:55:21.451Z,10.27
2022-09-18T22:57:49.126Z,10.28
2022-09-18T23:00:16.574Z,10.25
2022-09-18T23:02:43.157Z,10.29
2022-09-18T23:05:09.618Z,10.30
2022-09-18T23:07:35.878Z,10.32
2022-09-18T23:10:02.458Z,10.28
2022-09-18T23:12:28.844Z,10.30
2022-09-18T23:14:55.181Z,10.32
2022-09-18T23:17:21.645Z,10.31
2022-09-18T23:19:47.928Z,10.12
2022-09-18T23:22:15.241Z,9.86
2022-09-18T23:24:41.779Z,9.64
2022-09-18T23:27:08.077Z,9.48
2022-09-18T23:29:38.266Z,9.33
2022-09-18T23:32:05.607Z,9.14
2022-09-18T23:34:32.050Z,9.04
2022-09-18T23:36:58.764Z,8.89
2022-09-18T23:39:31.856Z,8.85
2022-09-18T23:42:00.167Z,8.74
2022-09-18T23:44:27.074Z,8.72
2022-09-18T23:46:54.905Z,8.61
2022-09-18T23:49:21.658Z,8.54
2022-09-18T23:51:48.606Z,8.48
2022-09-18T23:54:19.685Z,8.46
2022-09-18T23:56:48.715Z,8.44
2022-09-18T23:59:22.574Z,8.41
